This is the latest recevied weather packets stored in our database for station/object OK2JF-6. If no packets are shown the sender has not sent any weather packets the latest 10 day(s).
| Time | Temp. | Humidity | Pressure | Rain* | Wind** | Luminosity | Snow |
|---|---|---|---|---|---|---|---|
| 1777890663 | 22.78° C | 44% | 1086.9 hPa | 0 mm | - | 368 W/m² | - |
| 1777890018 | 22.22° C | 45% | 1086.9 hPa | 0 mm | - | 355 W/m² | - |
| 1777889823 | 22.22° C | 44% | 1087 hPa | 0 mm | - | 323 W/m² | - |
| 1777889403 | 22.22° C | 45% | 1086.9 hPa | 0 mm | - | 323 W/m² | - |
| 1777888863 | 21.67° C | 46% | 1087.4 hPa | 0 mm | - | 243 W/m² | - |
| 1777888578 | 21.11° C | 46% | 1087.4 hPa | 0 mm | - | 259 W/m² | - |
| 1777888383 | 21.67° C | 45% | 1087.2 hPa | 0 mm | - | 282 W/m² | - |
| 1777888083 | 21.67° C | 44% | 1087.4 hPa | 0 mm | - | 303 W/m² | - |
| 1777887843 | 21.67° C | 45% | 1087.1 hPa | 0 mm | - | 319 W/m² | - |
| 1777887197 | 21.11° C | 46% | 1087.3 hPa | 0 mm | - | 252 W/m² | - |
| 1777887003 | 21.11° C | 46% | 1086.9 hPa | 0 mm | - | 303 W/m² | - |
| 1777886898 | 21.11° C | 46% | 1087.2 hPa | 0 mm | - | 281 W/m² | - |
| 1777886463 | 21.11° C | 45% | 1087.3 hPa | 0 mm | - | 271 W/m² | - |
| 1777886403 | 21.11° C | 46% | 1087.3 hPa | 0 mm | - | 276 W/m² | - |
| 1777886163 | 21.11° C | 45% | 1087.4 hPa | 0 mm | - | 284 W/m² | - |
| 1777886103 | 21.11° C | 45% | 1087.2 hPa | 0 mm | - | 281 W/m² | - |
| 1777885803 | 21.11° C | 46% | 1087.3 hPa | 0 mm | - | 264 W/m² | - |
| 1777885504 | 21.11° C | 46% | 1087.3 hPa | 0 mm | - | 264 W/m² | - |
| 1777885459 | 21.11° C | 46% | 1087.2 hPa | 0 mm | - | 263 W/m² | - |
| 1777885278 | 21.11° C | 44% | 1087.2 hPa | 0 mm | - | 268 W/m² | - |
| 1777885263 | 21.11° C | 44% | 1087.2 hPa | 0 mm | - | 268 W/m² | - |
| 1777884963 | 21.11° C | 45% | 1087.3 hPa | 0 mm | - | 290 W/m² | - |
| 1777884724 | 21.11° C | 45% | 1087.1 hPa | 0 mm | - | 310 W/m² | - |
| 1777884423 | 21.11° C | 44% | 1086.9 hPa | 0 mm | - | 338 W/m² | - |
| 1777883283 | 20.56° C | 47% | 1087.1 hPa | 0 mm | - | 281 W/m² | - |
* Rain latest hour (hover to see other rain measurements)
** Current wind speed in m/s (hover to see current wind gust speed)